createdAt,value
2018-09-29T00:01:52.098Z,3.00
2018-09-29T00:04:21.160Z,2.93
2018-09-29T00:06:50.477Z,3.20
2018-09-29T00:09:19.632Z,3.17
2018-09-29T00:11:48.743Z,3.27
2018-09-29T00:14:17.927Z,2.93
2018-09-29T00:16:46.943Z,3.17
2018-09-29T00:19:17.512Z,2.93
2018-09-29T00:21:46.771Z,3.10
2018-09-29T00:24:15.838Z,2.60
2018-09-29T00:26:44.886Z,3.03
2018-09-29T00:29:13.930Z,2.50
2018-09-29T00:31:43.917Z,3.20
2018-09-29T00:34:12.997Z,2.67
2018-09-29T00:36:42.197Z,2.57
2018-09-29T00:39:11.414Z,2.47
2018-09-29T00:41:40.622Z,2.50
2018-09-29T00:44:10.778Z,2.40
2018-09-29T00:46:40.490Z,2.10
2018-09-29T00:49:09.804Z,2.40
2018-09-29T00:51:39.078Z,2.57
2018-09-29T00:54:09.446Z,2.50
2018-09-29T00:56:38.531Z,2.47
2018-09-29T00:59:07.753Z,2.40
2018-09-29T01:01:37.495Z,2.00
2018-09-29T01:04:08.118Z,2.07
2018-09-29T01:06:37.426Z,2.27
2018-09-29T01:09:08.378Z,2.40
2018-09-29T01:11:37.543Z,2.43
2018-09-29T01:14:06.725Z,2.63
2018-09-29T01:16:36.939Z,2.10
2018-09-29T01:19:06.114Z,2.17
2018-09-29T01:21:35.304Z,2.73
2018-09-29T01:24:04.393Z,2.33
2018-09-29T01:26:33.589Z,2.30
2018-09-29T01:29:02.919Z,2.40
2018-09-29T01:31:32.170Z,1.90
2018-09-29T01:34:02.029Z,2.13
2018-09-29T01:36:31.071Z,1.73
2018-09-29T01:39:00.189Z,2.23
2018-09-29T01:41:29.249Z,2.17
2018-09-29T01:43:58.351Z,2.20
2018-09-29T01:46:27.486Z,1.90
2018-09-29T01:48:56.643Z,1.83
2018-09-29T01:51:26.483Z,2.10
2018-09-29T01:53:55.710Z,2.20
2018-09-29T01:56:24.887Z,2.27
2018-09-29T01:58:54.114Z,2.87
2018-09-29T02:01:23.851Z,2.20
2018-09-29T02:03:52.965Z,1.93
2018-09-29T02:06:22.166Z,1.87
2018-09-29T02:08:51.471Z,2.10
2018-09-29T02:11:20.670Z,2.60
2018-09-29T02:13:49.785Z,2.40
2018-09-29T02:16:19.091Z,2.63
2018-09-29T02:18:48.292Z,2.00
2018-09-29T02:21:17.403Z,2.03
2018-09-29T02:23:46.577Z,2.57
2018-09-29T02:26:15.786Z,2.20
2018-09-29T02:28:44.950Z,2.40
2018-09-29T02:31:14.267Z,2.10
2018-09-29T02:33:43.586Z,2.60
2018-09-29T02:36:12.923Z,2.37
2018-09-29T02:38:42.088Z,2.20
2018-09-29T02:41:11.207Z,2.27
2018-09-29T02:43:40.305Z,2.43
2018-09-29T02:46:09.578Z,2.80
2018-09-29T02:48:38.627Z,2.50
2018-09-29T02:51:07.882Z,2.60
2018-09-29T02:54:18.102Z,2.33
2018-09-29T02:56:50.431Z,2.23
2018-09-29T02:59:23.078Z,2.20
2018-09-29T03:01:56.242Z,2.30
2018-09-29T03:04:26.334Z,2.93
2018-09-29T03:06:55.697Z,2.07
2018-09-29T03:09:26.652Z,1.90
2018-09-29T03:11:55.863Z,2.60
2018-09-29T03:14:25.000Z,1.97
2018-09-29T03:17:08.231Z,1.97
2018-09-29T03:19:44.573Z,2.17
2018-09-29T03:22:24.611Z,2.83
2018-09-29T03:24:54.454Z,2.00
2018-09-29T03:27:30.762Z,2.40
2018-09-29T03:30:20.962Z,1.90
2018-09-29T03:36:24.914Z,2.20
2018-09-29T03:42:42.542Z,2.87
2018-09-29T03:45:22.103Z,2.23
2018-09-29T03:47:58.860Z,2.80
2018-09-29T03:51:03.309Z,2.90
2018-09-29T03:53:32.501Z,2.87
2018-09-29T03:56:01.584Z,2.73
2018-09-29T03:58:30.841Z,3.20
2018-09-29T04:00:59.964Z,3.17
2018-09-29T04:03:29.056Z,2.93
2018-09-29T04:05:58.230Z,3.00
2018-09-29T04:08:27.816Z,3.00
2018-09-29T04:10:56.924Z,3.00
2018-09-29T04:13:26.056Z,2.97
2018-09-29T04:15:55.110Z,2.53
2018-09-29T04:18:24.267Z,2.97
2018-09-29T04:20:53.469Z,2.70
2018-09-29T04:23:22.598Z,2.73
2018-09-29T04:25:51.948Z,2.60
2018-09-29T04:28:21.835Z,2.83
2018-09-29T04:30:50.967Z,2.83
2018-09-29T04:33:21.166Z,2.47
2018-09-29T04:35:50.211Z,2.57
2018-09-29T04:38:19.363Z,2.40
2018-09-29T04:40:48.657Z,2.60
2018-09-29T04:43:18.039Z,3.20
2018-09-29T04:45:47.110Z,2.90
2018-09-29T04:48:16.276Z,2.70
2018-09-29T04:50:45.663Z,2.20
2018-09-29T04:53:14.777Z,2.40
2018-09-29T04:55:44.141Z,2.87
2018-09-29T04:58:13.288Z,2.57
2018-09-29T05:00:42.870Z,2.80
2018-09-29T05:03:12.494Z,2.40
2018-09-29T05:05:41.576Z,2.13
2018-09-29T05:08:10.652Z,2.53
2018-09-29T05:10:39.759Z,2.60
2018-09-29T05:13:08.923Z,2.83
2018-09-29T05:15:38.999Z,3.10
2018-09-29T05:18:08.109Z,2.30
2018-09-29T05:20:37.163Z,3.00
2018-09-29T05:23:06.563Z,3.27
2018-09-29T05:25:35.661Z,2.87
2018-09-29T05:28:04.762Z,2.53
2018-09-29T05:30:33.939Z,2.43
2018-09-29T05:33:03.339Z,2.57
2018-09-29T05:35:32.507Z,2.47
2018-09-29T05:38:01.668Z,2.10
2018-09-29T05:40:31.349Z,2.60
2018-09-29T05:43:00.715Z,2.93
2018-09-29T05:45:30.030Z,2.57
2018-09-29T05:47:59.835Z,2.10
2018-09-29T05:50:28.990Z,2.17
2018-09-29T05:52:58.093Z,2.33
2018-09-29T05:55:28.201Z,2.23
2018-09-29T05:57:57.536Z,3.17
2018-09-29T06:00:27.227Z,3.07
2018-09-29T06:02:56.479Z,2.33
2018-09-29T06:05:25.628Z,2.80
2018-09-29T06:07:54.970Z,3.00
2018-09-29T06:10:24.187Z,2.57
2018-09-29T06:12:53.335Z,3.10
2018-09-29T06:15:23.030Z,2.70
2018-09-29T06:17:52.154Z,3.40
2018-09-29T06:20:21.202Z,2.87
2018-09-29T06:22:50.383Z,2.90
2018-09-29T06:25:20.139Z,2.60
2018-09-29T06:27:49.419Z,2.90
2018-09-29T06:30:18.557Z,3.07
2018-09-29T06:32:47.781Z,2.53
2018-09-29T06:35:16.822Z,3.00
2018-09-29T06:37:45.978Z,2.40
2018-09-29T06:40:15.148Z,2.60
2018-09-29T06:42:44.309Z,2.57
2018-09-29T06:45:13.594Z,2.80
2018-09-29T06:47:42.632Z,2.60
2018-09-29T06:50:11.892Z,2.90
2018-09-29T06:52:41.161Z,2.87
2018-09-29T06:55:10.322Z,2.57
2018-09-29T06:57:39.578Z,2.27
2018-09-29T07:00:08.637Z,2.70
2018-09-29T07:02:37.822Z,2.43
2018-09-29T07:05:07.007Z,2.40
2018-09-29T07:07:35.999Z,2.10
2018-09-29T07:10:06.891Z,2.00
2018-09-29T07:12:36.761Z,2.37
2018-09-29T07:15:06.749Z,1.87
2018-09-29T07:17:36.170Z,2.17
2018-09-29T07:20:05.384Z,1.90
2018-09-29T07:22:34.642Z,1.90
2018-09-29T07:25:03.865Z,2.33
2018-09-29T07:27:33.090Z,2.50
2018-09-29T07:30:02.184Z,2.37
2018-09-29T07:32:31.357Z,2.10
2018-09-29T07:35:00.526Z,2.40
2018-09-29T07:37:29.675Z,2.23
2018-09-29T07:39:59.075Z,2.20
2018-09-29T07:42:28.154Z,3.10
2018-09-29T07:44:57.228Z,2.77
2018-09-29T07:47:27.406Z,1.67
2018-09-29T07:49:56.624Z,2.10
2018-09-29T07:52:25.932Z,2.33
2018-09-29T07:54:55.216Z,2.17
2018-09-29T07:57:24.449Z,1.73
2018-09-29T07:59:53.717Z,1.70
2018-09-29T08:02:22.819Z,2.10
2018-09-29T08:04:51.880Z,1.90
2018-09-29T08:07:22.394Z,2.37
2018-09-29T08:09:51.586Z,1.97
2018-09-29T08:12:21.004Z,2.07
2018-09-29T08:14:50.178Z,2.30
2018-09-29T08:17:19.370Z,2.40
2018-09-29T08:19:48.629Z,2.00
2018-09-29T08:22:17.819Z,1.60
2018-09-29T08:24:47.027Z,1.80
2018-09-29T08:27:16.203Z,1.83
2018-09-29T08:29:46.354Z,1.93
2018-09-29T08:32:15.416Z,1.73
2018-09-29T08:34:44.486Z,1.87
2018-09-29T08:37:13.559Z,1.77
2018-09-29T08:39:42.686Z,1.87
2018-09-29T08:42:12.798Z,2.20
2018-09-29T08:44:42.067Z,1.90
2018-09-29T08:47:11.195Z,1.80
2018-09-29T08:49:40.393Z,1.70
2018-09-29T08:52:09.874Z,1.60
2018-09-29T08:54:38.965Z,1.70
2018-09-29T08:57:08.053Z,1.98
2018-09-29T08:59:37.173Z,2.05
2018-09-29T09:02:07.163Z,1.70
2018-09-29T09:04:36.348Z,2.25
2018-09-29T09:07:06.726Z,2.08
2018-09-29T09:09:35.944Z,2.30
2018-09-29T09:12:05.156Z,1.75
2018-09-29T09:14:34.354Z,2.27
2018-09-29T09:17:03.833Z,2.00
2018-09-29T09:19:32.983Z,1.90
2018-09-29T09:22:01.991Z,1.80
2018-09-29T09:24:31.431Z,1.47
2018-09-29T09:27:00.525Z,1.52
2018-09-29T09:29:29.730Z,1.20
2018-09-29T09:31:59.037Z,1.52
2018-09-29T09:34:28.367Z,1.57
2018-09-29T09:36:57.569Z,1.70
2018-09-29T09:39:26.629Z,1.50
2018-09-29T09:41:55.760Z,1.72
2018-09-29T09:44:24.989Z,1.82
2018-09-29T09:46:54.255Z,2.00
2018-09-29T09:49:24.007Z,1.72
2018-09-29T09:51:53.262Z,1.50
2018-09-29T09:54:22.414Z,1.90
2018-09-29T09:56:52.533Z,1.57
2018-09-29T09:59:21.719Z,1.82
2018-09-29T10:01:55.993Z,1.98
2018-09-29T10:04:25.094Z,2.15
2018-09-29T10:06:54.779Z,1.95
2018-09-29T10:09:23.866Z,1.87
2018-09-29T10:11:52.991Z,2.00
2018-09-29T10:14:22.471Z,1.87
2018-09-29T10:16:52.660Z,2.40
2018-09-29T10:19:21.754Z,1.77
2018-09-29T10:21:50.796Z,1.60
2018-09-29T10:24:19.945Z,1.72
2018-09-29T10:26:49.289Z,2.05
2018-09-29T10:29:18.550Z,2.00
2018-09-29T10:31:47.731Z,1.80
2018-09-29T10:34:16.961Z,2.02
2018-09-29T10:36:45.932Z,1.98
2018-09-29T10:39:14.982Z,2.58
2018-09-29T10:41:44.142Z,1.90
2018-09-29T10:44:13.479Z,1.90
2018-09-29T10:46:43.359Z,1.72
2018-09-29T10:49:12.471Z,1.60
2018-09-29T10:51:42.724Z,1.65
2018-09-29T10:54:11.733Z,1.40
2018-09-29T10:56:40.924Z,1.90
2018-09-29T10:59:10.093Z,2.12
2018-09-29T11:01:39.294Z,2.87
2018-09-29T11:04:08.471Z,2.40
2018-09-29T11:06:37.622Z,1.70
2018-09-29T11:09:10.242Z,1.90
2018-09-29T11:11:41.149Z,2.15
2018-09-29T11:14:10.393Z,1.72
2018-09-29T11:16:39.624Z,1.60
2018-09-29T11:19:09.670Z,1.70
2018-09-29T11:21:38.802Z,1.80
2018-09-29T11:24:07.994Z,1.72
2018-09-29T11:26:37.755Z,1.92
2018-09-29T11:29:06.853Z,1.90
2018-09-29T11:31:36.025Z,1.80
2018-09-29T11:34:05.334Z,2.10
2018-09-29T11:36:35.191Z,1.62
2018-09-29T11:39:06.241Z,2.10
2018-09-29T11:41:35.464Z,1.87
2018-09-29T11:44:04.537Z,1.87
2018-09-29T11:46:33.931Z,1.52
2018-09-29T11:49:03.724Z,1.65
2018-09-29T11:51:33.071Z,1.80
2018-09-29T11:54:02.407Z,2.00
2018-09-29T11:56:31.558Z,1.77
2018-09-29T11:59:00.779Z,1.82
2018-09-29T12:01:29.947Z,2.37
2018-09-29T12:03:59.502Z,1.90
2018-09-29T12:06:28.674Z,1.65
2018-09-29T12:08:58.004Z,1.60
2018-09-29T12:11:27.271Z,1.40
2018-09-29T12:13:56.534Z,1.55
2018-09-29T12:16:25.665Z,1.75
2018-09-29T12:18:55.619Z,1.92
2018-09-29T12:21:24.753Z,1.52
2018-09-29T12:23:53.976Z,2.05
2018-09-29T12:26:24.367Z,1.50
2018-09-29T12:28:53.473Z,1.42
2018-09-29T12:31:22.883Z,1.35
2018-09-29T12:33:52.602Z,1.80
2018-09-29T12:36:22.014Z,1.47
2018-09-29T12:38:51.318Z,1.50
2018-09-29T12:41:20.503Z,1.72
2018-09-29T12:43:49.662Z,1.75
2018-09-29T12:46:18.960Z,1.35
2018-09-29T12:48:48.291Z,1.80
2018-09-29T12:51:17.539Z,1.50
2018-09-29T12:53:46.735Z,1.87
2018-09-29T12:56:16.823Z,1.30
2018-09-29T12:58:46.229Z,2.00
2018-09-29T13:01:15.560Z,1.77
2018-09-29T13:03:44.774Z,1.57
2018-09-29T13:06:14.035Z,1.67
2018-09-29T13:08:43.074Z,1.52
2018-09-29T13:11:12.338Z,1.40
2018-09-29T13:13:41.574Z,1.80
2018-09-29T13:16:10.670Z,1.60
2018-09-29T13:18:39.658Z,1.98
2018-09-29T13:21:08.728Z,1.67
2018-09-29T13:23:38.186Z,2.22
2018-09-29T13:26:07.283Z,1.40
2018-09-29T13:28:36.353Z,1.75
2018-09-29T13:31:05.361Z,1.77
2018-09-29T13:33:34.682Z,1.90
2018-09-29T13:36:03.783Z,1.87
2018-09-29T13:38:33.002Z,1.98
2018-09-29T13:41:02.278Z,1.62
2018-09-29T13:43:31.486Z,1.67
2018-09-29T13:46:00.919Z,1.50
2018-09-29T13:48:29.975Z,1.37
2018-09-29T13:50:59.182Z,1.60
2018-09-29T13:53:28.385Z,2.10
2018-09-29T13:55:57.694Z,2.20
2018-09-29T13:58:27.530Z,2.00
2018-09-29T14:00:56.913Z,2.00
2018-09-29T14:03:26.355Z,2.20
2018-09-29T14:05:55.707Z,2.35
2018-09-29T14:08:24.933Z,1.57
2018-09-29T14:10:54.207Z,1.70
2018-09-29T14:13:23.551Z,2.00
2018-09-29T14:15:52.898Z,1.22
2018-09-29T14:18:22.098Z,1.67
2018-09-29T14:20:51.508Z,1.70
2018-09-29T14:23:20.563Z,1.40
2018-09-29T14:25:49.878Z,1.75
2018-09-29T14:28:19.161Z,1.90
2018-09-29T14:30:48.424Z,1.60
2018-09-29T14:33:17.622Z,1.70
2018-09-29T14:35:46.707Z,1.50
2018-09-29T14:38:15.972Z,2.05
2018-09-29T14:40:45.185Z,1.98
2018-09-29T14:43:14.494Z,1.87
2018-09-29T14:45:43.819Z,1.70
2018-09-29T14:48:13.013Z,1.60
2018-09-29T14:50:42.353Z,1.70
2018-09-29T14:53:11.598Z,2.02
2018-09-29T14:55:40.774Z,1.57
2018-09-29T14:58:09.964Z,1.60
2018-09-29T15:00:39.637Z,1.60
2018-09-29T15:03:08.962Z,1.70
2018-09-29T15:05:38.106Z,1.75
2018-09-29T15:08:07.262Z,1.85
2018-09-29T15:10:36.320Z,1.73
2018-09-29T15:13:05.503Z,1.60
2018-09-29T15:15:34.674Z,1.92
2018-09-29T15:18:04.134Z,1.70
2018-09-29T15:20:33.489Z,1.67
2018-09-29T15:23:02.709Z,1.65
2018-09-29T15:25:31.979Z,1.43
2018-09-29T15:28:01.292Z,1.70
2018-09-29T15:30:30.376Z,1.50
2018-09-29T15:32:59.678Z,1.70
2018-09-29T15:35:28.965Z,1.70
2018-09-29T15:37:58.190Z,1.73
2018-09-29T15:40:27.558Z,2.23
2018-09-29T15:42:57.021Z,1.47
2018-09-29T15:45:26.207Z,1.80
2018-09-29T15:47:55.418Z,1.50
2018-09-29T15:50:24.654Z,1.90
2018-09-29T15:52:53.855Z,1.77
2018-09-29T15:55:23.107Z,2.20
2018-09-29T15:57:52.352Z,1.50
2018-09-29T16:00:21.634Z,2.47
2018-09-29T16:02:50.933Z,2.70
2018-09-29T16:05:20.226Z,2.20
2018-09-29T16:07:49.517Z,1.77
2018-09-29T16:10:18.774Z,1.90
2018-09-29T16:12:47.986Z,3.20
2018-09-29T16:15:17.362Z,2.70
2018-09-29T16:17:46.613Z,2.50
2018-09-29T16:20:15.848Z,2.00
2018-09-29T16:22:45.066Z,1.90
2018-09-29T16:25:14.430Z,2.57
2018-09-29T16:27:43.577Z,2.57
2018-09-29T16:30:12.745Z,2.23
2018-09-29T16:32:42.019Z,2.07
2018-09-29T16:35:11.325Z,2.30
2018-09-29T16:37:40.451Z,2.50
2018-09-29T16:40:09.669Z,2.77
2018-09-29T16:42:38.847Z,2.60
2018-09-29T16:45:08.078Z,3.10
2018-09-29T16:47:37.437Z,3.07
2018-09-29T16:50:06.860Z,3.17
2018-09-29T16:52:36.138Z,3.00
2018-09-29T16:55:05.365Z,2.80
2018-09-29T16:57:34.564Z,2.00
2018-09-29T17:00:03.959Z,2.93
2018-09-29T17:02:33.777Z,2.47
2018-09-29T17:05:02.932Z,2.80
2018-09-29T17:07:32.191Z,2.87
2018-09-29T17:10:01.492Z,5.10
2018-09-29T17:12:30.787Z,5.20
2018-09-29T17:14:59.980Z,5.20
2018-09-29T17:17:29.247Z,4.63
2018-09-29T17:19:58.520Z,4.70
2018-09-29T17:22:27.803Z,5.00
2018-09-29T17:24:57.095Z,4.60
2018-09-29T17:27:26.449Z,3.70
2018-09-29T17:29:55.639Z,4.57
2018-09-29T17:32:25.006Z,4.70
2018-09-29T17:34:54.144Z,4.30
2018-09-29T17:37:23.455Z,4.70
2018-09-29T17:39:52.802Z,4.23
2018-09-29T17:42:22.159Z,5.00
2018-09-29T17:44:51.674Z,4.43
2018-09-29T17:47:20.776Z,4.80
2018-09-29T17:49:50.049Z,5.93
2018-09-29T17:52:19.453Z,6.10
2018-09-29T17:54:48.675Z,5.90
2018-09-29T17:57:17.792Z,5.83
2018-09-29T17:59:47.029Z,5.80
2018-09-29T18:02:16.336Z,5.50
2018-09-29T18:04:45.606Z,6.37
2018-09-29T18:07:14.874Z,7.30
2018-09-29T18:09:44.041Z,7.47
2018-09-29T18:12:13.348Z,7.73
2018-09-29T18:14:42.662Z,7.23
2018-09-29T18:17:11.841Z,8.17
2018-09-29T18:19:41.699Z,8.33
2018-09-29T18:22:10.766Z,7.80
2018-09-29T18:24:40.102Z,8.03
2018-09-29T18:27:09.380Z,7.80
2018-09-29T18:29:38.653Z,7.37
2018-09-29T18:32:07.857Z,8.00
2018-09-29T18:34:37.244Z,7.40
2018-09-29T18:37:06.647Z,7.07
2018-09-29T18:39:36.567Z,6.73
2018-09-29T18:42:05.782Z,5.30
2018-09-29T18:44:35.054Z,5.57
2018-09-29T18:47:04.279Z,5.50
2018-09-29T18:49:33.603Z,6.13
2018-09-29T18:52:02.869Z,6.57
2018-09-29T18:54:31.977Z,5.63
2018-09-29T18:57:01.163Z,5.50
2018-09-29T18:59:30.555Z,4.73
2018-09-29T19:01:59.798Z,5.23
2018-09-29T19:04:28.969Z,5.07
2018-09-29T19:06:58.113Z,5.17
2018-09-29T19:09:27.387Z,5.50
2018-09-29T19:11:56.598Z,6.30
2018-09-29T19:14:25.814Z,6.20
2018-09-29T19:16:55.252Z,6.40
2018-09-29T19:19:24.561Z,5.87
2018-09-29T19:21:53.887Z,4.70
2018-09-29T19:24:23.204Z,4.70
2018-09-29T19:26:52.364Z,4.97
2018-09-29T19:29:21.553Z,5.53
2018-09-29T19:31:50.746Z,5.13
2018-09-29T19:34:19.994Z,5.30
2018-09-29T19:36:49.714Z,4.77
2018-09-29T19:39:18.809Z,4.90
2018-09-29T19:41:47.947Z,4.27
2018-09-29T19:44:17.201Z,4.97
2018-09-29T19:46:46.471Z,4.67
2018-09-29T19:49:16.464Z,4.73
2018-09-29T19:51:45.680Z,4.87
2018-09-29T19:54:14.830Z,5.87
2018-09-29T19:56:44.046Z,6.00
2018-09-29T19:59:13.339Z,6.17
2018-09-29T20:01:42.442Z,6.23
2018-09-29T20:04:11.538Z,7.10
2018-09-29T20:06:40.791Z,5.70
2018-09-29T20:09:10.711Z,5.97
2018-09-29T20:11:39.985Z,5.63
2018-09-29T20:14:09.272Z,6.13
2018-09-29T20:16:38.518Z,4.83
2018-09-29T20:19:07.739Z,5.10
2018-09-29T20:21:36.915Z,5.20
2018-09-29T20:24:06.129Z,5.10
2018-09-29T20:26:35.254Z,4.07
2018-09-29T20:29:04.458Z,5.67
2018-09-29T20:31:33.685Z,5.93
2018-09-29T20:34:02.900Z,6.10
2018-09-29T20:36:32.198Z,5.77
2018-09-29T20:39:01.523Z,5.40
2018-09-29T20:41:30.774Z,5.63
2018-09-29T20:44:00.032Z,4.70
2018-09-29T20:46:29.856Z,5.00
2018-09-29T20:48:59.147Z,4.40
2018-09-29T20:51:28.240Z,4.83
2018-09-29T20:53:57.391Z,5.33
2018-09-29T20:56:26.884Z,6.33
2018-09-29T20:58:56.106Z,5.70
2018-09-29T21:01:25.423Z,4.73
2018-09-29T21:03:54.920Z,4.80
2018-09-29T21:06:24.308Z,4.60
2018-09-29T21:08:53.537Z,4.60
2018-09-29T21:11:22.797Z,5.30
2018-09-29T21:13:51.892Z,5.20
2018-09-29T21:16:21.170Z,4.50
2018-09-29T21:18:50.382Z,5.10
2018-09-29T21:21:19.675Z,4.83
2018-09-29T21:23:48.657Z,6.17
2018-09-29T21:26:17.870Z,5.80
2018-09-29T21:28:47.008Z,6.17
2018-09-29T21:31:16.297Z,5.10
2018-09-29T21:33:45.382Z,5.30
2018-09-29T21:36:14.494Z,5.07
2018-09-29T21:38:43.726Z,5.73
2018-09-29T21:41:13.927Z,5.33
2018-09-29T21:43:43.195Z,5.07
2018-09-29T21:46:12.452Z,5.57
2018-09-29T21:48:41.575Z,5.13
2018-09-29T21:51:10.678Z,5.10
2018-09-29T21:53:39.833Z,4.87
2018-09-29T21:56:09.011Z,4.77
2018-09-29T21:58:38.221Z,4.47
2018-09-29T22:01:12.772Z,5.90
2018-09-29T22:03:41.804Z,6.50
2018-09-29T22:06:10.996Z,5.00
2018-09-29T22:08:40.158Z,5.13
2018-09-29T22:11:09.392Z,5.17
2018-09-29T22:13:38.659Z,4.90
2018-09-29T22:16:08.097Z,5.97
2018-09-29T22:18:37.332Z,6.00
2018-09-29T22:21:06.732Z,5.97
2018-09-29T22:23:35.869Z,6.03
2018-09-29T22:26:05.232Z,6.30
2018-09-29T22:28:34.474Z,5.70
2018-09-29T22:31:03.637Z,5.27
2018-09-29T22:33:32.845Z,6.10
2018-09-29T22:36:02.253Z,5.40
2018-09-29T22:38:31.495Z,5.73
2018-09-29T22:41:00.748Z,5.80
2018-09-29T22:43:29.935Z,6.40
2018-09-29T22:45:59.100Z,4.63
2018-09-29T22:48:28.295Z,5.07
2018-09-29T22:50:57.495Z,4.60
2018-09-29T22:53:26.634Z,4.30
2018-09-29T22:55:55.841Z,4.37
2018-09-29T22:58:25.148Z,4.33
2018-09-29T23:00:54.278Z,5.03
2018-09-29T23:03:23.517Z,5.40
2018-09-29T23:05:52.677Z,5.07
2018-09-29T23:08:21.916Z,4.10
2018-09-29T23:10:51.154Z,5.20
2018-09-29T23:13:22.039Z,3.83
2018-09-29T23:15:51.226Z,4.20
2018-09-29T23:18:20.436Z,4.87
2018-09-29T23:20:49.585Z,3.87
2018-09-29T23:23:18.710Z,3.80
2018-09-29T23:25:47.943Z,3.53
2018-09-29T23:28:17.194Z,3.83
2018-09-29T23:30:46.369Z,3.93
2018-09-29T23:33:15.648Z,4.20
2018-09-29T23:35:44.917Z,3.47
2018-09-29T23:38:13.979Z,3.33
2018-09-29T23:40:43.187Z,3.70
2018-09-29T23:43:12.350Z,3.50
2018-09-29T23:45:41.718Z,3.83
2018-09-29T23:48:10.918Z,4.17
2018-09-29T23:50:40.108Z,5.07
2018-09-29T23:53:09.221Z,4.33
2018-09-29T23:55:38.350Z,3.87
2018-09-29T23:58:07.604Z,3.50
